Latest Coastal Weather Observations for Hogan Island

IDT60701

Issued at 1:35 pm EST Wednesday 17 September 2014 (issued every 10 minutes, with the page automatically refreshed every 10 minutes)

About coastal observations | Map of coastal stations | Coastal observations for TAS | Marine services | Other Formats
Station Details ID: 200838 Name: HOGAN ISLAND Lat: -39.22 Lon: 146.98 Height: 116.0 m
Data from the previous 72 hours. | See also: Recent months at Hogan Island
Date/Time
EST
Temp

°C
Wind Pressure Rain
since 9am
mm
Weather Cloud Vis
km
Sea
Height
m
Swell
Dir
 
Speed
knots
Gust
knots
hPa Trend Height
m
Period
s
Dir
17/01:30pm 10.5 WSW 46 57 1006.7 - 4.2 - - - - - - -
17/01:11pm 11.9 W 44 54 1006.4 - 4.2 - - - - - - -
17/01:00pm 12.0 W 44 50 1006.6 - 4.2 - - - - - - -
17/12:32pm 11.5 W 40 50 1006.6 - 4.2 - - - - - - -
17/12:30pm 11.8 W 39 45 1006.9 - 4.2 - - - - - - -
17/12:00pm 11.1 W 37 43 1007.7 - 4.2 - - - - - - -
17/11:40am 10.7 W 38 48 1007.5 - 4.2 - - - - - - -
17/11:30am 9.5 W 44 53 1007.3 - 4.2 - - - - - - -
17/11:16am 8.5 W 52 57 1006.8 - 4.0 - - - - - - -
17/11:14am 10.6 W 34 52 1007.3 - 4.0 - - - - - - -
17/11:00am 11.8 W 34 39 1007.6 - 4.0 - - - - - - -
17/10:30am 10.8 W 36 43 1007.8 - 4.0 - - - - - - -
17/10:19am 10.3 W 40 45 1007.6 - 4.0 - - - - - - -
17/10:17am 11.6 W 29 40 1007.8 - 4.0 - - - - - - -
17/10:00am 10.8 W 30 34 1008.0 - 4.0 - - - - - - -
17/09:30am 10.8 W 31 35 1008.3 - 4.0 - - - - - - -
17/09:02am 7.4 WNW 30 50 1008.3 - 1.2 - - - - - - -
17/09:01am 10.1 WNW 29 40 1008.1 - 0.4 - - - - - - -
17/09:00am 10.6 WNW 28 36 1008.2 - 12.0 - - - - - - -
17/08:30am 10.8 WNW 33 37 1008.0 - 12.0 - - - - - - -
17/08:00am 10.4 W 30 37 1008.3 - 11.8 - - - - - - -
17/07:30am 10.2 WNW 29 33 1008.1 - 11.8 - - - - - - -
17/07:00am 9.6 WNW 28 33 1008.4 - 11.8 - - - - - - -
17/06:41am 10.4 WNW 29 44 1008.1 - 11.6 - - - - - - -
17/06:30am 10.6 WNW 25 29 1008.5 - 11.6 - - - - - - -
17/06:00am 10.8 W 30 37 1008.6 - 11.6 - - - - - - -
17/05:30am 10.8 W 29 34 1008.5 - 11.6 - - - - - - -
17/05:00am 10.5 W 28 34 1008.4 - 11.6 - - - - - - -
17/04:30am 10.8 W 27 31 1008.5 - 11.6 - - - - - - -
17/04:00am 10.5 W 23 27 1008.7 - 11.6 - - - - - - -
17/03:30am 10.2 W 21 26 1008.9 - 11.4 - - - - - - -
17/03:00am 10.6 W 19 22 1009.3 - 11.2 - - - - - - -
17/02:30am 10.3 W 21 24 1009.2 - 11.2 - - - - - - -
17/02:00am 10.2 W 20 23 1009.4 - 11.2 - - - - - - -
17/01:30am 10.1 WSW 21 24 1009.7 - 11.2 - - - - - - -
17/01:00am 10.2 WSW 22 26 1009.8 - 11.2 - - - - - - -
17/12:30am 10.0 WSW 19 23 1009.9 - 11.2 - - - - - - -
17/12:00am 10.0 WSW 19 21 1010.1 - 11.2 - - - - - - -
 
Date/Time
EST
Temp

°C
Wind Pressure Rain
since 9am
mm
Weather Cloud Vis
km
Sea
Height
m
Swell
Dir
 
Speed
knots
Gust
knots
hPa Trend Height
m
Period
s
Dir
16/11:30pm 9.8 WSW 19 23 1010.0 - 11.2 - - - - - - -
16/11:00pm 10.2 SW 19 22 1010.2 - 11.2 - - - - - - -
16/10:30pm 10.2 SW 16 21 1010.2 - 11.2 - - - - - - -
16/10:00pm 10.3 SW 18 22 1010.1 - 11.2 - - - - - - -
16/09:30pm 10.2 SW 19 25 1010.0 - 11.2 - - - - - - -
16/09:00pm 10.2 SW 17 23 1009.6 - 11.2 - - - - - - -
16/08:32pm 10.4 SSW 17 27 1009.1 - 11.2 - - - - - - -
16/08:30pm 10.7 SSW 16 24 1009.0 - 11.2 - - - - - - -
16/08:00pm 11.2 WSW 15 18 1008.4 - 11.2 - - - - - - -
16/07:30pm 10.4 SW 14 16 1008.3 - 11.2 - - - - - - -
16/07:00pm 11.8 W 19 22 1008.1 - 11.2 - - - - - - -
16/06:30pm 11.7 W 17 20 1008.0 - 11.2 - - - - - - -
16/06:00pm 11.9 W 16 19 1008.1 - 11.2 - - - - - - -
16/05:30pm 12.2 NW 8 9 1008.0 - 11.0 - - - - - - -
16/05:00pm 12.1 W 8 10 1008.0 - 11.0 - - - - - - -
16/04:30pm 11.5 SE 6 11 1007.7 - 11.0 - - - - - - -
16/04:00pm 12.0 ESE 6 8 1007.3 - 11.0 - - - - - - -
16/03:30pm 12.1 SSE 8 9 1007.4 - 10.8 - - - - - - -
16/03:00pm 12.6 S 8 9 1007.3 - 9.6 - - - - - - -
16/02:30pm 12.7 SE 8 10 1007.2 - 8.4 - - - - - - -
16/02:00pm 12.7 ESE 13 15 1007.2 - 7.6 - - - - - - -
16/01:30pm 12.7 ESE 14 18 1007.4 - 6.0 - - - - - - -
16/01:00pm 12.8 ESE 15 18 1007.7 - 5.0 - - - - - - -
16/12:30pm 12.7 ESE 13 15 1008.2 - 4.0 - - - - - - -
16/12:00pm 12.7 ESE 14 16 1008.6 - 3.2 - - - - - - -
16/11:30am 12.6 ESE 14 15 1008.7 - 2.2 - - - - - - -
16/11:00am 12.5 E 17 19 1008.8 - 1.2 - - - - - - -
16/10:30am 12.9 E 17 19 1008.8 - 0.2 - - - - - - -
16/10:00am 12.9 E 19 22 1009.0 - 0.2 - - - - - - -
16/09:30am 12.8 E 17 19 1009.2 - 0.2 - - - - - - -
16/09:00am 12.5 E 19 22 1009.4 - 3.6 - - - - - - -
16/08:30am 12.4 E 19 24 1009.5 - 3.4 - - - - - - -
16/08:00am 12.4 E 17 22 1009.7 - 3.0 - - - - - - -
16/07:30am 12.3 E 21 25 1009.3 - 3.0 - - - - - - -
16/07:00am 12.3 E 19 23 1009.2 - 2.4 - - - - - - -
16/06:30am 12.2 E 20 24 1009.4 - 2.4 - - - - - - -
16/06:00am 12.2 E 22 25 1009.6 - 2.4 - - - - - - -
16/05:30am 12.2 ENE 19 23 1010.0 - 2.2 - - - - - - -
16/05:00am 12.2 ENE 20 25 1009.9 - 2.2 - - - - - - -
16/04:30am 12.0 ENE 24 28 1009.6 - 2.2 - - - - - - -
16/04:00am 11.9 E 25 30 1009.2 - 2.2 - - - - - - -
16/03:30am 11.8 E 21 26 1010.0 - 2.0 - - - - - - -
16/03:00am 11.6 E 22 28 - - 1.8 - - - - - - -
16/02:30am 11.6 ENE 23 26 1010.4 - 1.8 - - - - - - -
16/02:00am 11.8 ENE 24 27 1010.6 - 1.8 - - - - - - -
16/01:30am 11.7 ENE 20 23 1011.6 - 1.4 - - - - - - -
16/01:00am 11.5 ENE 23 27 1011.9 - 1.4 - - - - - - -
16/12:30am 11.5 ENE 27 30 1011.9 - 1.2 - - - - - - -
16/12:00am 11.6 ENE 27 30 1012.2 - 1.2 - - - - - - -
 
Date/Time
EST
Temp

°C
Wind Pressure Rain
since 9am
mm
Weather Cloud Vis
km
Sea
Height
m
Swell
Dir
 
Speed
knots
Gust
knots
hPa Trend Height
m
Period
s
Dir
15/11:30pm 11.3 E 25 29 1012.4 - 1.2 - - - - - - -
15/11:00pm 11.4 E 24 29 1012.8 - 1.2 - - - - - - -
15/10:30pm 11.4 E 26 31 1013.3 - 1.2 - - - - - - -
15/10:00pm 11.2 E 30 37 1013.2 - 1.2 - - - - - - -
15/09:30pm 11.2 E 30 34 1013.2 - 1.2 - - - - - - -
15/09:00pm 11.2 E 27 32 1013.9 - 1.2 - - - - - - -
15/08:30pm 11.3 E 26 30 1014.2 - 1.0 - - - - - - -
15/08:00pm 11.3 E 23 27 1014.4 - 0.6 - - - - - - -
15/07:30pm 11.4 ENE 17 19 1014.9 - 0.2 - - - - - - -
15/07:00pm 11.5 ENE 15 17 1015.1 - 0.0 - - - - - - -
15/06:30pm 11.8 ENE 16 19 1014.9 - 0.0 - - - - - - -
15/06:00pm 11.7 E 20 24 1014.3 - 0.0 - - - - - - -
15/05:30pm 11.2 E 22 25 1013.7 - 0.0 - - - - - - -
15/05:00pm 11.6 E 19 22 1014.0 - 0.0 - - - - - - -
15/04:30pm 11.6 E 19 21 1013.9 - 0.0 - - - - - - -
15/04:00pm 11.5 E 17 19 1014.0 - 0.0 - - - - - - -
15/03:30pm 11.5 E 15 17 1014.2 - 0.0 - - - - - - -
15/03:00pm 12.2 E 14 16 1014.3 - 0.0 - - - - - - -
15/02:30pm 12.3 ENE 13 15 1014.5 - 0.0 - - - - - - -
15/02:00pm 12.4 ENE 13 15 1014.8 - 0.0 - - - - - - -
15/01:30pm 12.0 ENE 12 14 1015.1 - 0.0 - - - - - - -
15/01:00pm 11.9 ENE 12 14 1015.5 - 0.0 - - - - - - -
15/12:30pm 12.5 ENE 12 14 1015.8 - 0.0 - - - - - - -
15/12:00pm 13.8 ENE 12 15 1016.3 - 0.0 - - - - - - -
15/11:30am 13.9 ENE 12 13 1016.5 - 0.0 - - - - - - -
15/11:00am 13.5 ENE 12 14 1016.7 - 0.0 - - - - - - -
15/10:30am 13.0 ENE 12 14 1016.9 - 0.0 - - - - - - -
15/10:00am 13.1 ENE 11 13 1017.2 - 0.0 - - - - - - -
15/09:30am 13.5 ENE 10 12 1017.5 - 0.0 - - - - - - -
15/09:00am 13.2 ENE 9 10 1017.6 - 0.0 - - - - - - -
15/08:30am 12.2 ENE 7 9 1017.7 - 0.0 - - - - - - -
15/08:00am 12.3 ENE 7 8 1017.5 - 0.0 - - - - - - -
15/07:30am 11.6 E 7 8 1017.4 - 0.0 - - - - - - -
15/07:00am 10.4 E 5 6 1017.0 - 0.0 - - - - - - -
15/06:30am 9.2 ESE 5 6 1016.8 - 0.0 - - - - - - -
15/06:00am 8.8 SE 4 5 1016.6 - 0.0 - - - - - - -
15/05:30am 9.3 S 3 4 1016.7 - 0.0 - - - - - - -
15/05:00am 9.2 S 4 5 1016.5 - 0.0 - - - - - - -
15/04:30am 9.4 SSW 5 6 1016.7 - 0.0 - - - - - - -
15/04:00am 9.2 WSW 6 8 1016.8 - 0.0 - - - - - - -
15/03:30am 9.0 SW 6 8 1016.9 - 0.0 - - - - - - -
15/03:00am 9.4 WSW 7 9 1017.1 - 0.0 - - - - - - -
15/02:30am 9.6 WSW 9 10 1017.4 - 0.0 - - - - - - -
15/02:00am 9.7 WSW 10 11 1017.7 - 0.0 - - - - - - -
15/01:30am 9.7 SW 9 10 1017.9 - 0.0 - - - - - - -
15/01:00am 10.0 SW 11 13 1018.2 - 0.0 - - - - - - -
15/12:30am 10.2 SW 12 14 1018.2 - 0.0 - - - - - - -
15/12:00am 10.3 SW 14 16 1018.3 - 0.0 - - - - - - -
 
Date/Time
EST
Temp

°C
Wind Pressure Rain
since 9am
mm
Weather Cloud Vis
km
Sea
Height
m
Swell
Dir
 
Speed
knots
Gust
knots
hPa Trend Height
m
Period
s
Dir
14/11:30pm 10.3 SW 13 16 1018.2 - 0.0 - - - - - - -
14/11:00pm 10.5 WSW 16 18 1018.2 - 0.0 - - - - - - -
14/10:30pm 10.8 WSW 16 18 1018.4 - 0.0 - - - - - - -
14/10:00pm 10.8 WSW 15 18 1018.8 - 0.0 - - - - - - -
14/09:30pm 11.0 WSW 17 19 1018.7 - 0.0 - - - - - - -
14/09:00pm 11.2 WSW 19 22 1018.8 - 0.0 - - - - - - -
14/08:30pm 11.2 W 19 21 1018.8 - 0.0 - - - - - - -
14/08:00pm 11.3 W 17 19 1018.7 - 0.0 - - - - - - -
14/07:30pm 11.3 W 18 20 1018.4 - 0.0 - - - - - - -
14/07:00pm 11.4 W 19 21 1018.1 - 0.0 - - - - - - -
14/06:30pm 11.4 W 19 22 1017.9 - 0.0 - - - - - - -
14/06:00pm 11.6 W 19 22 1018.0 - 0.0 - - - - - - -
14/05:30pm 11.8 WSW 21 23 1017.8 - 0.0 - - - - - - -
14/05:00pm 12.7 W 23 28 1017.7 - 0.0 - - - - - - -
14/04:30pm 13.4 W 27 31 1017.4 - 0.0 - - - - - - -
14/04:00pm 14.0 W 26 29 1017.5 - 0.0 - - - - - - -
14/03:30pm 14.0 W 27 31 1017.5 - 0.0 - - - - - - -
14/03:00pm 14.1 W 24 27 1017.8 - 0.0 - - - - - - -
14/02:30pm 13.9 W 27 30 1017.7 - 0.0 - - - - - - -
14/02:00pm 14.2 W 27 31 1017.8 - 0.0 - - - - - - -

Other Formats:

Comma delimited format used in spreadsheet applications
http://www.bom.gov.au/fwo/IDT60701/IDT60701.94949.axf

JavaScript Object Notation format (JSON) in row-major order
http://www.bom.gov.au/fwo/IDT60701/IDT60701.94949.json